Hardy, Kentucky
Current Conditions -  °F | °C
As of 3:15 AM on Thursday 29 Jan 2015 (Local Time) from KPBX Reporting Station
Clear Clear  
Wind Chill: 26°   Ceiling: Unl
Heat Index: 34°   Visibility: 10mi
Dew Point: 17°   Wind: 12mph
Humidity: 50%   Direction: 130°SE
Pressure: 30.13"   Gusts: NA
Location:  37.62°N, 82.24°W
Report Text: KPBX 290815Z AUTO 13010KT 10SM CLR 01/M08 A3013 RMK AO2 T00121082
Loading
Personal Weather Stations






























Interactive Weather Map New forecast layout! Learn more

10-Day Weather Forecast

Advertisements
Track Severe Weather on mobile